Mazarn, Arkansas
Current Conditions -  °F | °C
As of 12:53 PM on Friday 24 Oct 2014 (Local Time) from KHOT Reporting Station
Clear Clear  
Wind Chill: 22°   Ceiling: Unl
Heat Index: 22°   Visibility: 10mi
Dew Point: 12°   Wind: 0mph
Humidity: 53%   Direction: NA
Pressure: 30.15"   Gusts: NA
Location:  34.3467°N, 93.3187°W
Report Text: KHOT 241753Z AUTO 00000KT 10SM CLR 22/12 A3015 RMK AO2 SLP207 T02220122 10222 20083 58015
Loading
Personal Weather Stations






























Interactive Weather Map
Tropical Storm Tracking
New forecast layout! Learn more

10-Day Weather Forecast

Advertisements
Track Severe Weather on mobile